Aviation Digital Data Service (ADDS)

Output produced by METARs form (1009 UTC 28 September 2021)
found at http://www.aviationweather.gov/metar/data/
 
KSTC 280520Z 2806/2906 11004KT P6SM SKC 
     FM281500 16008KT P6SM SKC